sensor_id;sensor_type;location;lat;lon;timestamp;P1;durP1;ratioP1;P2;durP2;ratioP2
6527;SDS011;64597;42.664;23.256;2023-03-09T00:01:34;4.22;;;1.02;;
6527;SDS011;64597;42.664;23.256;2023-03-09T00:04:03;2.03;;;1.08;;
6527;SDS011;64597;42.664;23.256;2023-03-09T00:06:52;2.30;;;1.13;;
6527;SDS011;64597;42.664;23.256;2023-03-09T00:09:18;1.85;;;1.23;;
6527;SDS011;64597;42.664;23.256;2023-03-09T00:11:46;2.25;;;1.33;;
6527;SDS011;64597;42.664;23.256;2023-03-09T00:14:24;2.05;;;1.25;;
6527;SDS011;64597;42.664;23.256;2023-03-09T00:16:49;2.40;;;1.30;;
6527;SDS011;64597;42.664;23.256;2023-03-09T00:19:15;1.30;;;1.00;;
6527;SDS011;64597;42.664;23.256;2023-03-09T00:21:46;2.63;;;1.13;;
6527;SDS011;64597;42.664;23.256;2023-03-09T00:24:20;2.45;;;1.25;;
6527;SDS011;64597;42.664;23.256;2023-03-09T00:29:24;1.73;;;0.90;;
6527;SDS011;64597;42.664;23.256;2023-03-09T00:31:51;1.10;;;0.90;;
6527;SDS011;64597;42.664;23.256;2023-03-09T00:34:17;3.78;;;1.90;;
6527;SDS011;64597;42.664;23.256;2023-03-09T00:36:46;7.57;;;3.92;;
6527;SDS011;64597;42.664;23.256;2023-03-09T00:39:13;6.63;;;4.20;;
6527;SDS011;64597;42.664;23.256;2023-03-09T00:41:40;8.52;;;4.85;;
6527;SDS011;64597;42.664;23.256;2023-03-09T00:44:05;5.93;;;3.75;;
6527;SDS011;64597;42.664;23.256;2023-03-09T00:46:32;7.38;;;4.47;;
6527;SDS011;64597;42.664;23.256;2023-03-09T00:48:58;6.90;;;4.22;;
6527;SDS011;64597;42.664;23.256;2023-03-09T00:51:33;6.13;;;3.40;;
6527;SDS011;64597;42.664;23.256;2023-03-09T00:54:22;6.97;;;3.45;;
6527;SDS011;64597;42.664;23.256;2023-03-09T00:59:12;6.63;;;3.45;;
6527;SDS011;64597;42.664;23.256;2023-03-09T01:01:39;5.25;;;3.95;;
6527;SDS011;64597;42.664;23.256;2023-03-09T01:04:05;6.05;;;3.50;;
6527;SDS011;64597;42.664;23.256;2023-03-09T01:06:30;5.85;;;3.60;;
6527;SDS011;64597;42.664;23.256;2023-03-09T01:08:56;7.90;;;4.50;;
6527;SDS011;64597;42.664;23.256;2023-03-09T01:11:26;9.23;;;4.15;;
6527;SDS011;64597;42.664;23.256;2023-03-09T01:13:52;7.70;;;4.03;;
6527;SDS011;64597;42.664;23.256;2023-03-09T01:16:18;8.65;;;4.25;;
6527;SDS011;64597;42.664;23.256;2023-03-09T01:18:44;8.45;;;4.10;;
6527;SDS011;64597;42.664;23.256;2023-03-09T01:21:10;9.88;;;4.40;;
6527;SDS011;64597;42.664;23.256;2023-03-09T01:23:39;8.93;;;5.00;;
6527;SDS011;64597;42.664;23.256;2023-03-09T01:26:05;8.82;;;4.80;;
6527;SDS011;64597;42.664;23.256;2023-03-09T01:28:32;9.50;;;5.15;;
6527;SDS011;64597;42.664;23.256;2023-03-09T01:31:00;6.97;;;4.38;;
6527;SDS011;64597;42.664;23.256;2023-03-09T01:33:26;8.15;;;4.38;;
6527;SDS011;64597;42.664;23.256;2023-03-09T01:35:51;7.20;;;4.90;;
6527;SDS011;64597;42.664;23.256;2023-03-09T01:38:16;9.10;;;4.50;;
6527;SDS011;64597;42.664;23.256;2023-03-09T01:40:46;10.15;;;5.38;;
6527;SDS011;64597;42.664;23.256;2023-03-09T01:43:54;7.68;;;4.63;;
6527;SDS011;64597;42.664;23.256;2023-03-09T01:51:44;8.35;;;4.35;;
6527;SDS011;64597;42.664;23.256;2023-03-09T01:57:46;6.43;;;3.67;;
6527;SDS011;64597;42.664;23.256;2023-03-09T01:59:55;7.75;;;3.95;;
6527;SDS011;64597;42.664;23.256;2023-03-09T02:02:24;7.70;;;3.58;;
6527;SDS011;64597;42.664;23.256;2023-03-09T02:04:55;6.85;;;2.78;;
6527;SDS011;64597;42.664;23.256;2023-03-09T02:07:23;5.47;;;3.40;;
6527;SDS011;64597;42.664;23.256;2023-03-09T02:09:54;5.53;;;3.50;;
6527;SDS011;64597;42.664;23.256;2023-03-09T02:12:24;5.70;;;3.95;;
6527;SDS011;64597;42.664;23.256;2023-03-09T02:14:51;8.05;;;3.58;;
6527;SDS011;64597;42.664;23.256;2023-03-09T02:17:17;4.97;;;3.05;;
6527;SDS011;64597;42.664;23.256;2023-03-09T02:22:36;7.00;;;3.97;;
6527;SDS011;64597;42.664;23.256;2023-03-09T02:27:31;13.88;;;6.82;;
6527;SDS011;64597;42.664;23.256;2023-03-09T02:29:58;8.95;;;4.55;;
6527;SDS011;64597;42.664;23.256;2023-03-09T02:32:24;8.88;;;4.57;;
6527;SDS011;64597;42.664;23.256;2023-03-09T02:34:50;7.25;;;4.05;;
6527;SDS011;64597;42.664;23.256;2023-03-09T02:39:47;7.03;;;3.35;;
6527;SDS011;64597;42.664;23.256;2023-03-09T02:42:15;7.57;;;3.38;;
6527;SDS011;64597;42.664;23.256;2023-03-09T02:44:42;5.15;;;3.22;;
6527;SDS011;64597;42.664;23.256;2023-03-09T02:47:08;7.22;;;3.47;;
6527;SDS011;64597;42.664;23.256;2023-03-09T02:49:38;8.98;;;4.13;;
6527;SDS011;64597;42.664;23.256;2023-03-09T02:52:04;7.50;;;4.32;;
6527;SDS011;64597;42.664;23.256;2023-03-09T02:54:29;9.40;;;3.70;;
6527;SDS011;64597;42.664;23.256;2023-03-09T02:56:55;10.02;;;4.05;;
6527;SDS011;64597;42.664;23.256;2023-03-09T02:59:20;7.43;;;3.78;;
6527;SDS011;64597;42.664;23.256;2023-03-09T03:01:46;5.85;;;4.10;;
6527;SDS011;64597;42.664;23.256;2023-03-09T03:04:11;5.15;;;3.47;;
6527;SDS011;64597;42.664;23.256;2023-03-09T03:06:37;8.02;;;4.40;;
6527;SDS011;64597;42.664;23.256;2023-03-09T03:09:03;6.70;;;4.03;;
6527;SDS011;64597;42.664;23.256;2023-03-09T03:11:29;6.20;;;4.03;;
6527;SDS011;64597;42.664;23.256;2023-03-09T03:13:54;8.20;;;3.60;;
6527;SDS011;64597;42.664;23.256;2023-03-09T03:16:20;7.82;;;3.92;;
6527;SDS011;64597;42.664;23.256;2023-03-09T03:18:45;6.93;;;3.67;;
6527;SDS011;64597;42.664;23.256;2023-03-09T03:21:11;7.68;;;3.83;;
6527;SDS011;64597;42.664;23.256;2023-03-09T03:23:37;6.47;;;4.70;;
6527;SDS011;64597;42.664;23.256;2023-03-09T03:26:09;9.65;;;5.22;;
6527;SDS011;64597;42.664;23.256;2023-03-09T03:28:35;7.97;;;4.40;;
6527;SDS011;64597;42.664;23.256;2023-03-09T03:31:02;9.60;;;5.10;;
6527;SDS011;64597;42.664;23.256;2023-03-09T03:33:28;10.00;;;5.57;;
6527;SDS011;64597;42.664;23.256;2023-03-09T03:35:53;6.85;;;3.90;;
6527;SDS011;64597;42.664;23.256;2023-03-09T03:38:20;13.07;;;4.63;;
6527;SDS011;64597;42.664;23.256;2023-03-09T03:40:46;6.38;;;4.10;;
6527;SDS011;64597;42.664;23.256;2023-03-09T03:43:12;7.65;;;3.67;;
6527;SDS011;64597;42.664;23.256;2023-03-09T03:45:37;5.85;;;3.25;;
6527;SDS011;64597;42.664;23.256;2023-03-09T03:48:03;10.18;;;4.00;;
6527;SDS011;64597;42.664;23.256;2023-03-09T03:50:28;5.63;;;3.78;;
6527;SDS011;64597;42.664;23.256;2023-03-09T03:52:54;7.45;;;4.10;;
6527;SDS011;64597;42.664;23.256;2023-03-09T03:55:19;6.18;;;3.58;;
6527;SDS011;64597;42.664;23.256;2023-03-09T03:57:44;8.60;;;4.68;;
6527;SDS011;64597;42.664;23.256;2023-03-09T04:00:10;9.55;;;5.35;;
6527;SDS011;64597;42.664;23.256;2023-03-09T04:02:36;8.75;;;5.13;;
6527;SDS011;64597;42.664;23.256;2023-03-09T04:05:07;8.93;;;4.80;;
6527;SDS011;64597;42.664;23.256;2023-03-09T04:07:33;11.70;;;4.85;;
6527;SDS011;64597;42.664;23.256;2023-03-09T04:09:58;8.57;;;5.05;;
6527;SDS011;64597;42.664;23.256;2023-03-09T04:12:24;7.43;;;4.75;;
6527;SDS011;64597;42.664;23.256;2023-03-09T04:14:49;7.70;;;4.57;;
6527;SDS011;64597;42.664;23.256;2023-03-09T04:17:14;7.95;;;5.20;;
6527;SDS011;64597;42.664;23.256;2023-03-09T04:19:40;6.20;;;4.38;;
6527;SDS011;64597;42.664;23.256;2023-03-09T04:22:05;8.98;;;4.43;;
6527;SDS011;64597;42.664;23.256;2023-03-09T04:24:32;11.13;;;5.07;;
6527;SDS011;64597;42.664;23.256;2023-03-09T04:26:58;11.05;;;4.57;;
6527;SDS011;64597;42.664;23.256;2023-03-09T04:29:24;13.70;;;4.65;;
6527;SDS011;64597;42.664;23.256;2023-03-09T04:31:49;7.15;;;3.92;;
6527;SDS011;64597;42.664;23.256;2023-03-09T04:34:14;6.82;;;4.45;;
6527;SDS011;64597;42.664;23.256;2023-03-09T04:36:40;7.32;;;4.30;;
6527;SDS011;64597;42.664;23.256;2023-03-09T04:39:05;7.15;;;5.28;;
6527;SDS011;64597;42.664;23.256;2023-03-09T04:41:31;6.45;;;4.15;;
6527;SDS011;64597;42.664;23.256;2023-03-09T04:43:56;7.82;;;4.20;;
6527;SDS011;64597;42.664;23.256;2023-03-09T04:46:22;8.77;;;4.55;;
6527;SDS011;64597;42.664;23.256;2023-03-09T04:48:47;12.02;;;5.15;;
6527;SDS011;64597;42.664;23.256;2023-03-09T04:51:13;10.32;;;4.07;;
6527;SDS011;64597;42.664;23.256;2023-03-09T04:53:38;9.90;;;4.25;;
6527;SDS011;64597;42.664;23.256;2023-03-09T04:56:04;13.05;;;5.30;;
6527;SDS011;64597;42.664;23.256;2023-03-09T04:58:30;6.32;;;4.65;;
6527;SDS011;64597;42.664;23.256;2023-03-09T05:00:55;10.18;;;4.80;;
6527;SDS011;64597;42.664;23.256;2023-03-09T05:03:21;9.43;;;4.60;;
6527;SDS011;64597;42.664;23.256;2023-03-09T05:05:46;8.55;;;5.00;;
6527;SDS011;64597;42.664;23.256;2023-03-09T05:08:12;12.55;;;5.20;;
6527;SDS011;64597;42.664;23.256;2023-03-09T05:10:37;13.27;;;7.15;;
6527;SDS011;64597;42.664;23.256;2023-03-09T05:13:03;10.43;;;6.78;;
6527;SDS011;64597;42.664;23.256;2023-03-09T05:15:28;16.88;;;7.93;;
6527;SDS011;64597;42.664;23.256;2023-03-09T05:17:53;13.85;;;6.60;;
6527;SDS011;64597;42.664;23.256;2023-03-09T05:20:19;16.23;;;8.27;;
6527;SDS011;64597;42.664;23.256;2023-03-09T05:22:45;14.55;;;7.57;;
6527;SDS011;64597;42.664;23.256;2023-03-09T05:25:10;21.13;;;8.30;;
6527;SDS011;64597;42.664;23.256;2023-03-09T05:27:36;15.45;;;7.38;;
6527;SDS011;64597;42.664;23.256;2023-03-09T05:30:02;13.32;;;7.70;;
6527;SDS011;64597;42.664;23.256;2023-03-09T05:32:28;18.95;;;7.65;;
6527;SDS011;64597;42.664;23.256;2023-03-09T05:34:53;13.15;;;6.32;;
6527;SDS011;64597;42.664;23.256;2023-03-09T05:37:19;13.15;;;6.63;;
6527;SDS011;64597;42.664;23.256;2023-03-09T05:39:44;18.65;;;8.48;;
6527;SDS011;64597;42.664;23.256;2023-03-09T05:42:10;13.25;;;7.82;;
6527;SDS011;64597;42.664;23.256;2023-03-09T05:44:36;10.75;;;5.80;;
6527;SDS011;64597;42.664;23.256;2023-03-09T05:47:01;16.08;;;7.70;;
6527;SDS011;64597;42.664;23.256;2023-03-09T05:49:27;13.48;;;7.78;;
6527;SDS011;64597;42.664;23.256;2023-03-09T05:51:53;12.20;;;6.95;;
6527;SDS011;64597;42.664;23.256;2023-03-09T05:54:19;13.15;;;5.70;;
6527;SDS011;64597;42.664;23.256;2023-03-09T05:56:44;10.50;;;5.95;;
6527;SDS011;64597;42.664;23.256;2023-03-09T05:59:10;14.85;;;6.05;;
6527;SDS011;64597;42.664;23.256;2023-03-09T06:01:35;12.70;;;6.22;;
6527;SDS011;64597;42.664;23.256;2023-03-09T06:04:01;8.90;;;5.07;;
6527;SDS011;64597;42.664;23.256;2023-03-09T06:06:27;11.25;;;5.70;;
6527;SDS011;64597;42.664;23.256;2023-03-09T06:08:52;27.52;;;8.45;;
6527;SDS011;64597;42.664;23.256;2023-03-09T06:11:19;16.83;;;7.93;;
6527;SDS011;64597;42.664;23.256;2023-03-09T06:13:45;12.07;;;5.55;;
6527;SDS011;64597;42.664;23.256;2023-03-09T06:16:15;14.60;;;5.80;;
6527;SDS011;64597;42.664;23.256;2023-03-09T06:18:41;10.57;;;4.88;;
6527;SDS011;64597;42.664;23.256;2023-03-09T06:21:08;12.65;;;6.07;;
6527;SDS011;64597;42.664;23.256;2023-03-09T06:23:34;7.93;;;4.57;;
6527;SDS011;64597;42.664;23.256;2023-03-09T06:26:04;11.15;;;6.00;;
6527;SDS011;64597;42.664;23.256;2023-03-09T06:28:31;9.57;;;5.28;;
6527;SDS011;64597;42.664;23.256;2023-03-09T06:30:57;12.52;;;6.05;;
6527;SDS011;64597;42.664;23.256;2023-03-09T06:33:23;10.00;;;5.05;;
6527;SDS011;64597;42.664;23.256;2023-03-09T06:35:48;12.73;;;4.38;;
6527;SDS011;64597;42.664;23.256;2023-03-09T06:38:14;7.43;;;4.30;;
6527;SDS011;64597;42.664;23.256;2023-03-09T06:40:39;5.90;;;3.78;;
6527;SDS011;64597;42.664;23.256;2023-03-09T06:43:05;7.95;;;3.85;;
6527;SDS011;64597;42.664;23.256;2023-03-09T06:45:31;8.13;;;3.70;;
6527;SDS011;64597;42.664;23.256;2023-03-09T06:47:57;8.40;;;4.25;;
6527;SDS011;64597;42.664;23.256;2023-03-09T06:50:23;5.93;;;3.58;;
6527;SDS011;64597;42.664;23.256;2023-03-09T06:52:50;6.65;;;4.20;;
6527;SDS011;64597;42.664;23.256;2023-03-09T06:55:17;8.07;;;3.40;;
6527;SDS011;64597;42.664;23.256;2023-03-09T06:57:42;7.45;;;3.60;;
6527;SDS011;64597;42.664;23.256;2023-03-09T07:00:09;9.13;;;3.97;;
6527;SDS011;64597;42.664;23.256;2023-03-09T07:02:36;8.43;;;3.67;;
6527;SDS011;64597;42.664;23.256;2023-03-09T07:05:02;5.43;;;3.30;;
6527;SDS011;64597;42.664;23.256;2023-03-09T07:07:27;6.15;;;4.43;;
6527;SDS011;64597;42.664;23.256;2023-03-09T07:09:53;10.40;;;3.95;;
6527;SDS011;64597;42.664;23.256;2023-03-09T07:12:18;8.95;;;4.03;;
6527;SDS011;64597;42.664;23.256;2023-03-09T07:14:44;7.40;;;3.47;;
6527;SDS011;64597;42.664;23.256;2023-03-09T07:17:13;10.20;;;3.50;;
6527;SDS011;64597;42.664;23.256;2023-03-09T07:19:39;6.00;;;3.40;;
6527;SDS011;64597;42.664;23.256;2023-03-09T07:22:05;6.95;;;3.45;;
6527;SDS011;64597;42.664;23.256;2023-03-09T07:24:35;5.80;;;3.72;;
6527;SDS011;64597;42.664;23.256;2023-03-09T07:27:01;6.97;;;3.65;;
6527;SDS011;64597;42.664;23.256;2023-03-09T07:29:26;7.95;;;4.13;;
6527;SDS011;64597;42.664;23.256;2023-03-09T07:31:52;7.38;;;3.83;;
6527;SDS011;64597;42.664;23.256;2023-03-09T07:34:17;7.35;;;4.22;;
6527;SDS011;64597;42.664;23.256;2023-03-09T07:36:42;8.80;;;4.60;;
6527;SDS011;64597;42.664;23.256;2023-03-09T07:39:08;7.82;;;4.57;;
6527;SDS011;64597;42.664;23.256;2023-03-09T07:41:33;6.53;;;4.43;;
6527;SDS011;64597;42.664;23.256;2023-03-09T07:43:59;7.10;;;4.75;;
6527;SDS011;64597;42.664;23.256;2023-03-09T07:46:24;9.98;;;5.72;;
6527;SDS011;64597;42.664;23.256;2023-03-09T07:48:50;10.45;;;5.70;;
6527;SDS011;64597;42.664;23.256;2023-03-09T07:51:16;8.23;;;4.70;;
6527;SDS011;64597;42.664;23.256;2023-03-09T07:53:43;6.78;;;4.18;;
6527;SDS011;64597;42.664;23.256;2023-03-09T07:56:08;9.75;;;4.63;;
6527;SDS011;64597;42.664;23.256;2023-03-09T07:58:35;7.53;;;4.22;;
6527;SDS011;64597;42.664;23.256;2023-03-09T08:01:03;12.23;;;5.13;;
6527;SDS011;64597;42.664;23.256;2023-03-09T08:03:29;9.50;;;5.35;;
6527;SDS011;64597;42.664;23.256;2023-03-09T08:05:55;7.22;;;4.10;;
6527;SDS011;64597;42.664;23.256;2023-03-09T08:08:24;6.57;;;4.15;;
6527;SDS011;64597;42.664;23.256;2023-03-09T08:10:51;8.23;;;4.25;;
6527;SDS011;64597;42.664;23.256;2023-03-09T08:13:17;6.38;;;4.00;;
6527;SDS011;64597;42.664;23.256;2023-03-09T08:15:43;7.22;;;4.00;;
6527;SDS011;64597;42.664;23.256;2023-03-09T08:18:09;9.10;;;4.53;;
6527;SDS011;64597;42.664;23.256;2023-03-09T08:20:34;9.90;;;4.72;;
6527;SDS011;64597;42.664;23.256;2023-03-09T08:23:01;10.32;;;5.18;;
6527;SDS011;64597;42.664;23.256;2023-03-09T08:25:27;14.35;;;5.78;;
6527;SDS011;64597;42.664;23.256;2023-03-09T08:27:52;15.10;;;5.55;;
6527;SDS011;64597;42.664;23.256;2023-03-09T08:30:18;10.93;;;5.35;;
6527;SDS011;64597;42.664;23.256;2023-03-09T08:32:46;8.93;;;4.90;;
6527;SDS011;64597;42.664;23.256;2023-03-09T08:35:13;9.38;;;6.18;;
6527;SDS011;64597;42.664;23.256;2023-03-09T08:37:40;10.57;;;5.22;;
6527;SDS011;64597;42.664;23.256;2023-03-09T08:40:05;10.45;;;4.97;;
6527;SDS011;64597;42.664;23.256;2023-03-09T08:42:32;10.65;;;5.43;;
6527;SDS011;64597;42.664;23.256;2023-03-09T08:44:59;7.88;;;5.70;;
6527;SDS011;64597;42.664;23.256;2023-03-09T08:47:25;9.02;;;5.70;;
6527;SDS011;64597;42.664;23.256;2023-03-09T08:49:50;9.18;;;5.00;;
6527;SDS011;64597;42.664;23.256;2023-03-09T08:52:16;10.93;;;6.30;;
6527;SDS011;64597;42.664;23.256;2023-03-09T08:54:41;16.73;;;6.72;;
6527;SDS011;64597;42.664;23.256;2023-03-09T08:57:07;9.02;;;5.72;;
6527;SDS011;64597;42.664;23.256;2023-03-09T08:59:33;9.82;;;5.30;;
6527;SDS011;64597;42.664;23.256;2023-03-09T09:01:59;11.38;;;4.93;;
6527;SDS011;64597;42.664;23.256;2023-03-09T09:04:25;10.68;;;5.13;;
6527;SDS011;64597;42.664;23.256;2023-03-09T09:06:50;8.18;;;4.47;;
6527;SDS011;64597;42.664;23.256;2023-03-09T09:09:16;8.75;;;4.18;;
6527;SDS011;64597;42.664;23.256;2023-03-09T09:11:41;6.03;;;3.95;;
6527;SDS011;64597;42.664;23.256;2023-03-09T09:14:06;9.23;;;3.90;;
6527;SDS011;64597;42.664;23.256;2023-03-09T09:16:33;7.68;;;4.28;;
6527;SDS011;64597;42.664;23.256;2023-03-09T09:18:58;10.65;;;3.95;;
6527;SDS011;64597;42.664;23.256;2023-03-09T09:21:24;10.50;;;4.18;;
6527;SDS011;64597;42.664;23.256;2023-03-09T09:23:49;6.07;;;4.43;;
6527;SDS011;64597;42.664;23.256;2023-03-09T09:26:15;6.07;;;3.83;;
6527;SDS011;64597;42.664;23.256;2023-03-09T09:28:42;11.30;;;4.30;;
6527;SDS011;64597;42.664;23.256;2023-03-09T09:31:09;8.10;;;4.25;;
6527;SDS011;64597;42.664;23.256;2023-03-09T09:33:38;6.85;;;3.72;;
6527;SDS011;64597;42.664;23.256;2023-03-09T09:36:07;9.23;;;3.17;;
6527;SDS011;64597;42.664;23.256;2023-03-09T09:38:39;5.45;;;2.55;;
6527;SDS011;64597;42.664;23.256;2023-03-09T09:41:14;3.92;;;2.40;;
6527;SDS011;64597;42.664;23.256;2023-03-09T09:43:49;6.25;;;3.20;;
6527;SDS011;64597;42.664;23.256;2023-03-09T09:46:17;2.63;;;1.27;;
6527;SDS011;64597;42.664;23.256;2023-03-09T09:48:45;1.67;;;0.70;;
6527;SDS011;64597;42.664;23.256;2023-03-09T09:56:33;1.23;;;1.05;;
6527;SDS011;64597;42.664;23.256;2023-03-09T09:59:13;1.90;;;1.50;;
6527;SDS011;64597;42.664;23.256;2023-03-09T10:01:47;1.48;;;0.98;;
6527;SDS011;64597;42.664;23.256;2023-03-09T10:04:22;1.48;;;0.80;;
6527;SDS011;64597;42.664;23.256;2023-03-09T10:07:13;2.15;;;0.80;;
6527;SDS011;64597;42.664;23.256;2023-03-09T10:09:42;1.90;;;0.80;;
6527;SDS011;64597;42.664;23.256;2023-03-09T10:12:15;1.83;;;0.85;;
6527;SDS011;64597;42.664;23.256;2023-03-09T10:14:52;1.42;;;0.82;;
6527;SDS011;64597;42.664;23.256;2023-03-09T10:17:26;1.27;;;0.75;;
6527;SDS011;64597;42.664;23.256;2023-03-09T10:19:59;2.63;;;0.70;;
6527;SDS011;64597;42.664;23.256;2023-03-09T10:22:34;1.30;;;0.60;;
6527;SDS011;64597;42.664;23.256;2023-03-09T10:25:07;1.55;;;1.00;;
6527;SDS011;64597;42.664;23.256;2023-03-09T10:32:56;2.20;;;1.00;;
6527;SDS011;64597;42.664;23.256;2023-03-09T10:38:17;1.55;;;0.50;;
6527;SDS011;64597;42.664;23.256;2023-03-09T10:40:47;1.27;;;0.63;;
6527;SDS011;64597;42.664;23.256;2023-03-09T10:43:20;2.17;;;0.80;;
6527;SDS011;64597;42.664;23.256;2023-03-09T10:45:54;3.45;;;0.80;;
6527;SDS011;64597;42.664;23.256;2023-03-09T10:48:20;2.95;;;1.05;;
6527;SDS011;64597;42.664;23.256;2023-03-09T10:50:54;1.88;;;0.70;;
6527;SDS011;64597;42.664;23.256;2023-03-09T10:58:20;1.42;;;0.93;;
6527;SDS011;64597;42.664;23.256;2023-03-09T11:00:48;2.30;;;0.80;;
6527;SDS011;64597;42.664;23.256;2023-03-09T11:03:23;2.65;;;0.80;;
6527;SDS011;64597;42.664;23.256;2023-03-09T11:05:51;1.20;;;0.70;;
6527;SDS011;64597;42.664;23.256;2023-03-09T11:08:26;2.45;;;1.00;;
6527;SDS011;64597;42.664;23.256;2023-03-09T11:11:05;1.98;;;0.90;;
6527;SDS011;64597;42.664;23.256;2023-03-09T11:13:33;1.50;;;0.73;;
6527;SDS011;64597;42.664;23.256;2023-03-09T11:16:06;2.15;;;0.82;;
6527;SDS011;64597;42.664;23.256;2023-03-09T11:18:43;1.10;;;0.70;;
6527;SDS011;64597;42.664;23.256;2023-03-09T11:21:10;1.15;;;0.70;;
6527;SDS011;64597;42.664;23.256;2023-03-09T11:23:49;1.35;;;0.70;;
6527;SDS011;64597;42.664;23.256;2023-03-09T11:31:34;1.42;;;0.70;;
6527;SDS011;64597;42.664;23.256;2023-03-09T11:34:05;2.55;;;1.08;;
6527;SDS011;64597;42.664;23.256;2023-03-09T11:36:37;2.83;;;0.80;;
6527;SDS011;64597;42.664;23.256;2023-03-09T11:39:11;0.80;;;0.60;;
6527;SDS011;64597;42.664;23.256;2023-03-09T11:41:43;2.13;;;0.70;;
6527;SDS011;64597;42.664;23.256;2023-03-09T11:44:33;1.17;;;1.00;;
6527;SDS011;64597;42.664;23.256;2023-03-09T11:47:05;1.13;;;0.60;;
6527;SDS011;64597;42.664;23.256;2023-03-09T11:49:47;1.02;;;0.60;;
6527;SDS011;64597;42.664;23.256;2023-03-09T11:52:17;1.52;;;0.82;;
6527;SDS011;64597;42.664;23.256;2023-03-09T11:54:50;2.10;;;0.80;;
6527;SDS011;64597;42.664;23.256;2023-03-09T11:57:21;3.00;;;1.13;;
6527;SDS011;64597;42.664;23.256;2023-03-09T12:05:20;3.00;;;0.70;;
6527;SDS011;64597;42.664;23.256;2023-03-09T12:07:57;1.25;;;0.75;;
6527;SDS011;64597;42.664;23.256;2023-03-09T12:10:35;1.95;;;0.90;;
6527;SDS011;64597;42.664;23.256;2023-03-09T12:13:21;3.58;;;0.70;;
6527;SDS011;64597;42.664;23.256;2023-03-09T12:16:00;2.47;;;0.80;;
6527;SDS011;64597;42.664;23.256;2023-03-09T12:21:11;0.93;;;0.75;;
6527;SDS011;64597;42.664;23.256;2023-03-09T12:28:37;0.93;;;0.73;;
6527;SDS011;64597;42.664;23.256;2023-03-09T12:31:03;2.78;;;0.90;;
6527;SDS011;64597;42.664;23.256;2023-03-09T12:36:21;0.98;;;0.70;;
6527;SDS011;64597;42.664;23.256;2023-03-09T12:42:00;3.60;;;0.93;;
6527;SDS011;64597;42.664;23.256;2023-03-09T12:49:50;1.55;;;0.80;;
6527;SDS011;64597;42.664;23.256;2023-03-09T12:55:21;2.63;;;0.93;;
6527;SDS011;64597;42.664;23.256;2023-03-09T12:57:49;0.95;;;0.70;;
6527;SDS011;64597;42.664;23.256;2023-03-09T13:00:35;2.95;;;1.20;;
6527;SDS011;64597;42.664;23.256;2023-03-09T13:03:14;1.38;;;0.70;;
6527;SDS011;64597;42.664;23.256;2023-03-09T13:05:46;1.70;;;0.95;;
6527;SDS011;64597;42.664;23.256;2023-03-09T13:08:32;1.90;;;0.82;;
6527;SDS011;64597;42.664;23.256;2023-03-09T13:11:43;1.30;;;0.70;;
6527;SDS011;64597;42.664;23.256;2023-03-09T13:13:52;1.95;;;0.90;;
6527;SDS011;64597;42.664;23.256;2023-03-09T13:29:38;1.63;;;0.60;;
6527;SDS011;64597;42.664;23.256;2023-03-09T13:34:58;1.63;;;0.98;;
6527;SDS011;64597;42.664;23.256;2023-03-09T13:37:26;1.70;;;1.30;;
6527;SDS011;64597;42.664;23.256;2023-03-09T13:39:58;1.42;;;0.93;;
6527;SDS011;64597;42.664;23.256;2023-03-09T13:42:36;1.80;;;0.88;;
6527;SDS011;64597;42.664;23.256;2023-03-09T13:45:02;1.67;;;0.85;;
6527;SDS011;64597;42.664;23.256;2023-03-09T13:47:29;1.67;;;1.02;;
6527;SDS011;64597;42.664;23.256;2023-03-09T13:49:56;1.40;;;0.70;;
6527;SDS011;64597;42.664;23.256;2023-03-09T13:52:24;3.97;;;1.15;;
6527;SDS011;64597;42.664;23.256;2023-03-09T13:54:53;2.83;;;0.93;;
6527;SDS011;64597;42.664;23.256;2023-03-09T13:57:23;2.28;;;1.00;;
6527;SDS011;64597;42.664;23.256;2023-03-09T13:59:58;1.58;;;0.80;;
6527;SDS011;64597;42.664;23.256;2023-03-09T14:02:27;0.88;;;0.57;;
6527;SDS011;64597;42.664;23.256;2023-03-09T14:07:23;0.50;;;0.50;;
6527;SDS011;64597;42.664;23.256;2023-03-09T14:09:55;1.33;;;0.85;;
6527;SDS011;64597;42.664;23.256;2023-03-09T14:12:33;1.92;;;0.90;;
6527;SDS011;64597;42.664;23.256;2023-03-09T14:15:02;3.13;;;0.98;;
6527;SDS011;64597;42.664;23.256;2023-03-09T14:17:40;2.40;;;0.95;;
6527;SDS011;64597;42.664;23.256;2023-03-09T14:20:16;1.45;;;0.70;;
6527;SDS011;64597;42.664;23.256;2023-03-09T14:22:44;4.72;;;0.90;;
6527;SDS011;64597;42.664;23.256;2023-03-09T14:25:20;1.42;;;0.85;;
6527;SDS011;64597;42.664;23.256;2023-03-09T14:27:48;1.90;;;0.60;;
6527;SDS011;64597;42.664;23.256;2023-03-09T14:33:05;1.45;;;1.25;;
6527;SDS011;64597;42.664;23.256;2023-03-09T14:35:45;4.38;;;1.00;;
6527;SDS011;64597;42.664;23.256;2023-03-09T14:38:17;2.88;;;1.15;;
6527;SDS011;64597;42.664;23.256;2023-03-09T14:40:45;2.15;;;0.85;;
6527;SDS011;64597;42.664;23.256;2023-03-09T14:46:15;4.63;;;0.98;;
6527;SDS011;64597;42.664;23.256;2023-03-09T14:48:56;1.73;;;1.10;;
6527;SDS011;64597;42.664;23.256;2023-03-09T14:54:01;2.05;;;1.02;;
6527;SDS011;64597;42.664;23.256;2023-03-09T14:56:34;2.25;;;1.20;;
6527;SDS011;64597;42.664;23.256;2023-03-09T14:59:00;2.45;;;1.10;;
6527;SDS011;64597;42.664;23.256;2023-03-09T15:01:34;3.33;;;1.27;;
6527;SDS011;64597;42.664;23.256;2023-03-09T15:04:03;3.28;;;1.23;;
6527;SDS011;64597;42.664;23.256;2023-03-09T15:06:37;4.28;;;1.50;;
6527;SDS011;64597;42.664;23.256;2023-03-09T15:09:03;3.60;;;1.40;;
6527;SDS011;64597;42.664;23.256;2023-03-09T15:11:29;1.83;;;1.20;;
6527;SDS011;64597;42.664;23.256;2023-03-09T15:13:55;3.92;;;1.75;;
6527;SDS011;64597;42.664;23.256;2023-03-09T15:16:20;4.90;;;1.77;;
6527;SDS011;64597;42.664;23.256;2023-03-09T15:18:46;1.80;;;1.15;;
6527;SDS011;64597;42.664;23.256;2023-03-09T15:21:11;3.50;;;1.95;;
6527;SDS011;64597;42.664;23.256;2023-03-09T15:23:36;1.60;;;0.90;;
6527;SDS011;64597;42.664;23.256;2023-03-09T15:26:03;3.45;;;1.27;;
6527;SDS011;64597;42.664;23.256;2023-03-09T15:28:29;2.35;;;1.20;;
6527;SDS011;64597;42.664;23.256;2023-03-09T15:30:55;2.20;;;1.25;;
6527;SDS011;64597;42.664;23.256;2023-03-09T15:33:20;2.22;;;1.30;;
6527;SDS011;64597;42.664;23.256;2023-03-09T15:35:46;2.22;;;1.10;;
6527;SDS011;64597;42.664;23.256;2023-03-09T15:38:12;2.67;;;1.67;;
6527;SDS011;64597;42.664;23.256;2023-03-09T15:40:40;4.20;;;1.73;;
6527;SDS011;64597;42.664;23.256;2023-03-09T15:43:06;2.90;;;1.30;;
6527;SDS011;64597;42.664;23.256;2023-03-09T15:45:33;2.70;;;1.30;;
6527;SDS011;64597;42.664;23.256;2023-03-09T15:47:58;4.55;;;1.30;;
6527;SDS011;64597;42.664;23.256;2023-03-09T15:50:24;2.67;;;1.10;;
6527;SDS011;64597;42.664;23.256;2023-03-09T15:52:50;2.03;;;0.90;;
6527;SDS011;64597;42.664;23.256;2023-03-09T15:55:16;1.90;;;0.85;;
6527;SDS011;64597;42.664;23.256;2023-03-09T15:57:42;3.00;;;1.15;;
6527;SDS011;64597;42.664;23.256;2023-03-09T16:00:08;8.02;;;1.90;;
6527;SDS011;64597;42.664;23.256;2023-03-09T16:02:35;3.13;;;1.50;;
6527;SDS011;64597;42.664;23.256;2023-03-09T16:05:01;3.38;;;1.30;;
6527;SDS011;64597;42.664;23.256;2023-03-09T16:07:26;6.80;;;2.00;;
6527;SDS011;64597;42.664;23.256;2023-03-09T16:09:52;3.72;;;1.83;;
6527;SDS011;64597;42.664;23.256;2023-03-09T16:12:17;6.15;;;1.92;;
6527;SDS011;64597;42.664;23.256;2023-03-09T16:14:44;2.50;;;1.50;;
6527;SDS011;64597;42.664;23.256;2023-03-09T16:17:09;6.38;;;2.00;;
6527;SDS011;64597;42.664;23.256;2023-03-09T16:19:35;3.35;;;1.75;;
6527;SDS011;64597;42.664;23.256;2023-03-09T16:22:00;2.63;;;1.58;;
6527;SDS011;64597;42.664;23.256;2023-03-09T16:24:26;1.73;;;1.30;;
6527;SDS011;64597;42.664;23.256;2023-03-09T16:26:51;5.25;;;1.98;;
6527;SDS011;64597;42.664;23.256;2023-03-09T16:29:17;3.35;;;2.10;;
6527;SDS011;64597;42.664;23.256;2023-03-09T16:31:47;4.25;;;1.80;;